createdAt,value
2019-01-26T00:01:51.406Z,34.60
2019-01-26T00:03:53.348Z,35.63
2019-01-26T00:05:55.217Z,33.40
2019-01-26T00:07:56.959Z,33.42
2019-01-26T00:09:58.695Z,36.90
2019-01-26T00:12:00.493Z,34.75
2019-01-26T00:14:02.252Z,36.48
2019-01-26T00:16:04.079Z,34.70
2019-01-26T00:18:06.405Z,35.73
2019-01-26T00:20:08.371Z,34.55
2019-01-26T00:22:10.211Z,31.65
2019-01-26T00:24:11.941Z,35.00
2019-01-26T00:26:13.791Z,37.13
2019-01-26T00:28:15.620Z,37.50
2019-01-26T00:30:17.651Z,33.85
2019-01-26T00:32:19.483Z,33.75
2019-01-26T00:34:21.249Z,33.98
2019-01-26T00:36:23.199Z,33.53
2019-01-26T00:38:24.947Z,35.70
2019-01-26T00:40:27.019Z,33.02
2019-01-26T00:42:28.860Z,33.30
2019-01-26T00:44:30.691Z,32.20
2019-01-26T00:46:32.423Z,31.10
2019-01-26T00:48:34.165Z,33.35
2019-01-26T00:50:35.934Z,33.98
2019-01-26T00:52:37.670Z,31.73
2019-01-26T00:54:39.712Z,32.60
2019-01-26T00:56:41.471Z,29.77
2019-01-26T00:58:43.208Z,33.30
2019-01-26T01:00:45.055Z,29.67
2019-01-26T01:02:47.042Z,30.95
2019-01-26T01:04:49.167Z,32.85
2019-01-26T01:06:51.006Z,32.63
2019-01-26T01:08:52.947Z,35.13
2019-01-26T01:10:54.704Z,33.60
2019-01-26T01:12:56.441Z,33.58
2019-01-26T01:14:58.201Z,33.33
2019-01-26T01:16:59.927Z,37.08
2019-01-26T01:19:01.902Z,33.67
2019-01-26T01:21:03.928Z,33.25
2019-01-26T01:23:05.892Z,33.65
2019-01-26T01:25:07.948Z,32.20
2019-01-26T01:27:10.316Z,31.73
2019-01-26T01:29:12.074Z,35.05
2019-01-26T01:31:14.014Z,34.98
2019-01-26T01:33:15.747Z,45.92
2019-01-26T01:35:17.698Z,36.15
2019-01-26T01:37:19.675Z,37.85
2019-01-26T01:39:22.242Z,36.60
2019-01-26T01:41:24.084Z,40.35
2019-01-26T01:43:26.005Z,38.15
2019-01-26T01:45:27.836Z,43.05
2019-01-26T01:47:29.811Z,36.60
2019-01-26T01:49:31.539Z,35.70
2019-01-26T01:51:33.267Z,35.50
2019-01-26T01:53:35.123Z,44.00
2019-01-26T01:55:36.967Z,41.90
2019-01-26T01:57:39.084Z,49.30
2019-01-26T01:59:40.837Z,42.00
2019-01-26T02:01:42.679Z,48.68
2019-01-26T02:03:44.459Z,43.40
2019-01-26T02:05:46.338Z,42.25
2019-01-26T02:07:48.255Z,43.75
2019-01-26T02:09:49.991Z,43.85
2019-01-26T02:11:51.868Z,38.60
2019-01-26T02:13:53.721Z,41.83
2019-01-26T02:15:55.804Z,48.87
2019-01-26T02:17:57.554Z,37.15
2019-01-26T02:19:59.411Z,45.10
2019-01-26T02:22:01.232Z,39.20
2019-01-26T02:24:03.175Z,39.05
2019-01-26T02:26:05.195Z,35.48
2019-01-26T02:28:07.300Z,43.63
2019-01-26T02:30:11.584Z,37.65
2019-01-26T02:32:13.307Z,42.62
2019-01-26T02:34:15.245Z,44.18
2019-01-26T02:36:17.085Z,37.00
2019-01-26T02:38:18.805Z,38.80
2019-01-26T02:40:21.052Z,33.05
2019-01-26T02:42:22.894Z,40.50
2019-01-26T02:44:25.024Z,39.55
2019-01-26T02:46:26.759Z,30.27
2019-01-26T02:48:28.586Z,32.15
2019-01-26T02:50:30.415Z,32.33
2019-01-26T02:52:32.359Z,35.90
2019-01-26T02:54:34.082Z,39.75
2019-01-26T02:56:35.853Z,35.85
2019-01-26T02:58:37.612Z,37.33
2019-01-26T03:00:39.454Z,45.60
2019-01-26T03:02:41.302Z,49.80
2019-01-26T03:04:43.046Z,46.90
2019-01-26T03:06:44.775Z,40.38
2019-01-26T03:08:46.512Z,35.78
2019-01-26T03:10:48.427Z,45.67
2019-01-26T03:12:50.277Z,36.33
2019-01-26T03:14:52.136Z,38.70
2019-01-26T03:16:53.960Z,37.25
2019-01-26T03:18:55.708Z,42.65
2019-01-26T03:20:57.848Z,39.95
2019-01-26T03:22:59.583Z,31.48
2019-01-26T03:25:01.416Z,48.60
2019-01-26T03:27:03.505Z,31.77
2019-01-26T03:29:05.432Z,33.13
2019-01-26T03:31:07.257Z,51.30
2019-01-26T03:33:09.004Z,40.38
2019-01-26T03:35:10.951Z,41.02
2019-01-26T03:37:12.874Z,39.70
2019-01-26T03:39:14.844Z,52.65
2019-01-26T03:41:16.671Z,36.08
2019-01-26T03:43:18.436Z,33.20
2019-01-26T03:45:20.272Z,39.45
2019-01-26T03:47:22.108Z,45.80
2019-01-26T03:49:23.824Z,31.82
2019-01-26T03:51:25.679Z,40.50
2019-01-26T03:53:27.779Z,43.23
2019-01-26T03:55:29.726Z,44.30
2019-01-26T03:57:31.784Z,45.78
2019-01-26T03:59:33.776Z,42.13
2019-01-26T04:01:35.702Z,40.65
2019-01-26T04:03:37.548Z,38.65
2019-01-26T04:05:39.515Z,42.30
2019-01-26T04:07:41.494Z,38.50
2019-01-26T04:09:43.335Z,36.60
2019-01-26T04:11:45.316Z,37.70
2019-01-26T04:13:47.523Z,37.00
2019-01-26T04:15:49.328Z,43.20
2019-01-26T04:17:51.587Z,45.23
2019-01-26T04:19:53.324Z,38.33
2019-01-26T04:21:55.149Z,42.20
2019-01-26T04:23:57.123Z,42.62
2019-01-26T04:25:58.858Z,40.48
2019-01-26T04:28:00.704Z,45.58
2019-01-26T04:30:03.516Z,38.08
2019-01-26T04:32:07.599Z,32.48
2019-01-26T04:34:09.599Z,41.15
2019-01-26T04:36:11.437Z,38.42
2019-01-26T04:38:13.151Z,34.65
2019-01-26T04:40:16.131Z,37.67
2019-01-26T04:42:18.061Z,31.82
2019-01-26T04:44:19.916Z,30.70
2019-01-26T04:46:21.752Z,31.42
2019-01-26T04:48:23.491Z,34.10
2019-01-26T04:50:25.444Z,34.95
2019-01-26T04:52:27.183Z,31.48
2019-01-26T04:54:29.110Z,28.67
2019-01-26T04:56:30.967Z,24.15
2019-01-26T04:58:32.683Z,25.52
2019-01-26T05:00:34.428Z,27.70
2019-01-26T05:02:36.437Z,28.35
2019-01-26T05:04:38.619Z,26.57
2019-01-26T05:06:40.799Z,23.92
2019-01-26T05:08:42.636Z,24.02
2019-01-26T05:10:44.469Z,24.10
2019-01-26T05:12:46.547Z,23.57
2019-01-26T05:14:48.300Z,23.75
2019-01-26T05:16:50.034Z,22.95
2019-01-26T05:18:51.953Z,23.18
2019-01-26T05:20:53.668Z,23.18
2019-01-26T05:22:55.500Z,23.42
2019-01-26T05:24:57.249Z,22.98
2019-01-26T05:26:59.007Z,21.48
2019-01-26T05:29:00.933Z,22.60
2019-01-26T05:31:02.950Z,21.68
2019-01-26T05:33:04.780Z,24.90
2019-01-26T05:35:06.707Z,22.93
2019-01-26T05:37:08.461Z,21.12
2019-01-26T05:39:11.092Z,20.60
2019-01-26T05:41:12.790Z,21.60
2019-01-26T05:43:14.739Z,21.20
2019-01-26T05:45:18.278Z,23.27
2019-01-26T05:47:19.988Z,20.40
2019-01-26T05:49:21.680Z,22.50
2019-01-26T05:51:23.768Z,20.25
2019-01-26T05:53:25.562Z,20.82
2019-01-26T05:55:27.363Z,19.87
2019-01-26T05:57:29.086Z,18.85
2019-01-26T05:59:30.924Z,16.93
2019-01-26T06:01:32.618Z,21.80
2019-01-26T06:03:34.531Z,21.82
2019-01-26T06:05:36.238Z,20.45
2019-01-26T06:07:38.046Z,20.35
2019-01-26T06:09:39.867Z,19.95
2019-01-26T06:11:41.571Z,19.77
2019-01-26T06:13:43.290Z,19.17
2019-01-26T06:15:45.095Z,18.35
2019-01-26T06:17:46.929Z,20.77
2019-01-26T06:19:48.951Z,21.37
2019-01-26T06:21:50.758Z,20.62
2019-01-26T06:23:52.487Z,19.10
2019-01-26T06:25:54.415Z,19.17
2019-01-26T06:27:56.358Z,21.10
2019-01-26T06:29:58.077Z,19.23
2019-01-26T06:31:59.781Z,22.58
2019-01-26T06:34:01.584Z,18.45
2019-01-26T06:36:03.554Z,19.50
2019-01-26T06:38:05.545Z,20.62
2019-01-26T06:40:09.748Z,21.57
2019-01-26T06:42:11.479Z,19.07
2019-01-26T06:44:13.266Z,21.02
2019-01-26T06:46:15.154Z,18.15
2019-01-26T06:48:16.963Z,19.12
2019-01-26T06:50:23.898Z,19.92
2019-01-26T06:52:25.706Z,19.62
2019-01-26T06:54:27.423Z,19.65
2019-01-26T06:56:29.379Z,17.62
2019-01-26T06:58:32.150Z,19.27
2019-01-26T07:00:34.179Z,15.53
2019-01-26T07:02:36.108Z,17.92
2019-01-26T07:05:01.073Z,19.17
2019-01-26T07:07:11.907Z,16.80
2019-01-26T07:09:13.619Z,17.80
2019-01-26T07:11:15.322Z,16.93
2019-01-26T07:13:17.138Z,15.70
2019-01-26T07:15:19.657Z,16.20
2019-01-26T07:17:22.482Z,15.20
2019-01-26T07:19:24.205Z,17.05
2019-01-26T07:21:25.902Z,15.40
2019-01-26T07:23:27.757Z,15.53
2019-01-26T07:25:29.655Z,16.12
2019-01-26T07:27:31.350Z,16.23
2019-01-26T07:29:33.074Z,16.95
2019-01-26T07:31:34.783Z,17.02
2019-01-26T07:33:36.478Z,20.72
2019-01-26T07:35:38.210Z,16.40
2019-01-26T07:37:39.931Z,15.10
2019-01-26T07:39:41.635Z,16.20
2019-01-26T07:41:43.367Z,18.42
2019-01-26T07:43:47.154Z,18.57
2019-01-26T07:45:48.689Z,15.38
2019-01-26T07:47:50.406Z,17.37
2019-01-26T07:49:52.119Z,16.93
2019-01-26T07:51:53.827Z,17.32
2019-01-26T07:53:55.554Z,17.55
2019-01-26T07:55:57.258Z,15.55
2019-01-26T07:57:59.069Z,18.48
2019-01-26T08:00:01.042Z,16.45
2019-01-26T08:02:02.971Z,15.80
2019-01-26T08:04:04.874Z,17.05
2019-01-26T08:06:06.634Z,16.80
2019-01-26T08:08:08.414Z,17.40
2019-01-26T08:10:12.446Z,18.67
2019-01-26T08:12:14.274Z,15.63
2019-01-26T08:14:16.027Z,17.42
2019-01-26T08:16:17.738Z,16.52
2019-01-26T08:18:24.082Z,15.20
2019-01-26T08:20:23.416Z,15.35
2019-01-26T08:22:25.382Z,16.02
2019-01-26T08:24:27.126Z,17.00
2019-01-26T08:26:28.834Z,15.88
2019-01-26T08:28:30.766Z,16.37
2019-01-26T08:30:32.721Z,16.60
2019-01-26T08:32:34.563Z,16.27
2019-01-26T08:34:36.294Z,17.42
2019-01-26T08:36:38.335Z,15.03
2019-01-26T08:38:40.064Z,16.85
2019-01-26T08:40:41.782Z,16.50
2019-01-26T08:42:43.682Z,16.05
2019-01-26T08:44:45.413Z,17.80
2019-01-26T08:46:47.136Z,19.35
2019-01-26T08:48:51.515Z,16.90
2019-01-26T08:50:53.357Z,17.48
2019-01-26T08:52:55.266Z,16.37
2019-01-26T08:54:57.021Z,17.80
2019-01-26T08:56:58.735Z,17.70
2019-01-26T08:59:01.320Z,17.75
2019-01-26T09:01:03.278Z,16.80
2019-01-26T09:03:23.337Z,17.98
2019-01-26T09:05:26.778Z,16.85
2019-01-26T09:07:28.534Z,17.45
2019-01-26T09:09:30.259Z,17.27
2019-01-26T09:11:31.983Z,18.52
2019-01-26T09:13:33.794Z,19.23
2019-01-26T09:15:35.842Z,18.02
2019-01-26T09:17:37.554Z,19.00
2019-01-26T09:19:39.269Z,19.55
2019-01-26T09:21:41.090Z,17.42
2019-01-26T09:23:42.859Z,17.60
2019-01-26T09:25:44.782Z,17.50
2019-01-26T09:27:46.697Z,20.68
2019-01-26T09:29:48.459Z,18.05
2019-01-26T09:31:50.187Z,17.57
2019-01-26T09:33:51.916Z,17.48
2019-01-26T09:35:54.546Z,18.50
2019-01-26T09:37:56.531Z,17.60
2019-01-26T09:39:58.254Z,18.80
2019-01-26T09:42:00.364Z,17.48
2019-01-26T09:44:02.773Z,18.05
2019-01-26T09:46:04.747Z,18.48
2019-01-26T09:48:06.695Z,18.30
2019-01-26T09:50:08.934Z,17.20
2019-01-26T09:52:10.759Z,18.90
2019-01-26T09:54:12.644Z,17.35
2019-01-26T09:56:14.671Z,18.73
2019-01-26T09:58:16.500Z,17.48
2019-01-26T10:00:18.947Z,15.93
2019-01-26T10:02:24.858Z,15.15
2019-01-26T10:04:26.930Z,18.10
2019-01-26T10:06:28.872Z,18.67
2019-01-26T10:08:32.698Z,17.05
2019-01-26T10:10:34.811Z,15.15
2019-01-26T10:12:36.967Z,14.47
2019-01-26T10:14:38.691Z,14.98
2019-01-26T10:16:40.520Z,15.38
2019-01-26T10:18:42.378Z,16.23
2019-01-26T10:20:44.198Z,16.30
2019-01-26T10:22:46.196Z,15.23
2019-01-26T10:24:48.166Z,14.18
2019-01-26T10:26:49.896Z,15.00
2019-01-26T10:28:51.623Z,15.93
2019-01-26T10:30:57.935Z,15.08
2019-01-26T10:32:59.648Z,14.53
2019-01-26T10:35:01.415Z,14.25
2019-01-26T10:37:08.379Z,12.65
2019-01-26T10:39:19.477Z,14.15
2019-01-26T10:41:46.719Z,14.33
2019-01-26T10:43:50.360Z,14.98
2019-01-26T10:45:52.065Z,17.02
2019-01-26T10:47:53.974Z,15.88
2019-01-26T10:49:55.692Z,17.67
2019-01-26T10:51:57.527Z,15.60
2019-01-26T10:53:59.246Z,15.78
2019-01-26T10:56:00.966Z,13.90
2019-01-26T10:58:03.102Z,14.93
2019-01-26T11:00:07.475Z,14.15
2019-01-26T11:02:09.824Z,14.45
2019-01-26T11:04:11.746Z,14.25
2019-01-26T11:06:13.462Z,13.72
2019-01-26T11:08:15.179Z,13.43
2019-01-26T11:10:17.086Z,15.23
2019-01-26T11:12:19.126Z,13.38
2019-01-26T11:14:21.211Z,13.50
2019-01-26T11:16:22.939Z,14.10
2019-01-26T11:18:24.925Z,12.60
2019-01-26T11:20:26.826Z,13.83
2019-01-26T11:22:28.650Z,11.20
2019-01-26T11:24:30.494Z,12.33
2019-01-26T11:26:32.408Z,13.35
2019-01-26T11:28:34.115Z,12.63
2019-01-26T11:30:37.199Z,12.47
2019-01-26T11:32:39.302Z,12.13
2019-01-26T11:34:41.095Z,11.40
2019-01-26T11:36:43.166Z,12.80
2019-01-26T11:38:44.978Z,11.65
2019-01-26T11:40:46.822Z,12.50
2019-01-26T11:42:48.689Z,11.57
2019-01-26T11:45:19.751Z,12.73
2019-01-26T11:47:21.681Z,12.28
2019-01-26T11:49:23.439Z,10.35
2019-01-26T11:51:33.082Z,10.10
2019-01-26T11:53:34.830Z,9.35
2019-01-26T11:55:51.094Z,9.75
2019-01-26T11:57:53.114Z,9.73
2019-01-26T12:00:26.406Z,9.80
2019-01-26T12:02:31.902Z,9.83
2019-01-26T12:04:58.234Z,10.35
2019-01-26T12:07:19.638Z,10.45
2019-01-26T12:09:21.382Z,9.95
2019-01-26T12:11:23.360Z,10.38
2019-01-26T12:13:25.194Z,10.85
2019-01-26T12:15:27.110Z,10.90
2019-01-26T12:17:28.854Z,10.65
2019-01-26T12:19:30.621Z,10.20
2019-01-26T12:21:32.365Z,10.40
2019-01-26T12:23:34.434Z,10.03
2019-01-26T12:25:36.218Z,12.25
2019-01-26T12:27:38.053Z,10.78
2019-01-26T12:29:39.942Z,10.18
2019-01-26T12:31:41.981Z,8.55
2019-01-26T12:33:43.910Z,8.93
2019-01-26T12:35:45.842Z,10.18
2019-01-26T12:37:47.694Z,9.05
2019-01-26T12:39:49.411Z,9.50
2019-01-26T12:41:51.225Z,9.10
2019-01-26T12:43:53.064Z,9.45
2019-01-26T12:45:54.890Z,9.83
2019-01-26T12:47:56.743Z,9.90
2019-01-26T12:49:58.613Z,10.65
2019-01-26T12:52:00.534Z,9.53
2019-01-26T12:54:02.558Z,9.53
2019-01-26T12:56:05.488Z,10.35
2019-01-26T12:58:07.405Z,9.48
2019-01-26T13:00:13.086Z,9.93
2019-01-26T13:02:15.039Z,11.10
2019-01-26T13:04:16.866Z,11.45
2019-01-26T13:06:18.791Z,10.98
2019-01-26T13:08:20.648Z,11.80
2019-01-26T13:10:25.962Z,12.50
2019-01-26T13:12:31.122Z,11.70
2019-01-26T13:14:33.710Z,11.40
2019-01-26T13:16:35.530Z,12.03
2019-01-26T13:18:37.370Z,13.40
2019-01-26T13:20:39.429Z,12.37
2019-01-26T13:22:41.398Z,12.35
2019-01-26T13:24:43.134Z,12.73
2019-01-26T13:26:44.942Z,12.90
2019-01-26T13:28:46.895Z,14.33
2019-01-26T13:30:48.637Z,13.50
2019-01-26T13:32:50.339Z,14.38
2019-01-26T13:34:52.162Z,15.38
2019-01-26T13:36:53.922Z,14.65
2019-01-26T13:38:55.739Z,15.58
2019-01-26T13:40:57.453Z,19.35
2019-01-26T13:42:59.187Z,16.15
2019-01-26T13:45:01.026Z,17.07
2019-01-26T13:47:03.191Z,16.30
2019-01-26T13:49:05.349Z,16.87
2019-01-26T13:51:12.976Z,18.50
2019-01-26T13:53:10.658Z,17.40
2019-01-26T13:55:14.578Z,19.92
2019-01-26T13:57:16.428Z,19.95
2019-01-26T13:59:18.134Z,21.77
2019-01-26T14:01:19.846Z,22.55
2019-01-26T14:03:21.938Z,22.85
2019-01-26T14:05:24.132Z,24.23
2019-01-26T14:07:25.855Z,21.20
2019-01-26T14:09:27.933Z,21.05
2019-01-26T14:11:29.645Z,22.17
2019-01-26T14:13:31.462Z,22.17
2019-01-26T14:15:33.573Z,22.65
2019-01-26T14:17:35.564Z,23.77
2019-01-26T14:19:37.272Z,26.48
2019-01-26T14:21:40.962Z,23.45
2019-01-26T14:23:43.254Z,24.30
2019-01-26T14:25:48.251Z,24.43
2019-01-26T14:27:50.166Z,23.52
2019-01-26T14:29:51.918Z,24.65
2019-01-26T14:31:53.634Z,25.25
2019-01-26T14:33:55.439Z,24.40
2019-01-26T14:35:57.320Z,24.63
2019-01-26T14:37:59.252Z,25.80
2019-01-26T14:40:01.062Z,27.58
2019-01-26T14:42:03.018Z,26.10
2019-01-26T14:44:04.854Z,26.50
2019-01-26T14:46:06.559Z,28.15
2019-01-26T14:48:08.278Z,25.40
2019-01-26T14:50:10.890Z,25.77
2019-01-26T14:52:12.611Z,25.80
2019-01-26T14:54:14.354Z,27.60
2019-01-26T14:56:16.079Z,24.90
2019-01-26T14:58:17.939Z,28.80
2019-01-26T15:00:24.979Z,30.48
2019-01-26T15:02:26.699Z,26.07
2019-01-26T15:04:28.537Z,25.02
2019-01-26T15:06:30.242Z,24.95
2019-01-26T15:08:32.541Z,26.87
2019-01-26T15:10:34.395Z,26.37
2019-01-26T15:12:36.258Z,28.45
2019-01-26T15:14:38.078Z,24.67
2019-01-26T15:16:40.002Z,25.00
2019-01-26T15:18:41.826Z,29.25
2019-01-26T15:20:43.534Z,25.50
2019-01-26T15:22:45.297Z,31.50
2019-01-26T15:24:46.998Z,25.23
2019-01-26T15:26:48.714Z,26.45
2019-01-26T15:28:50.665Z,27.52
2019-01-26T15:30:52.746Z,26.50
2019-01-26T15:32:54.740Z,29.45
2019-01-26T15:34:56.472Z,31.27
2019-01-26T15:36:58.194Z,21.17
2019-01-26T15:38:59.950Z,24.63
2019-01-26T15:41:01.670Z,23.80
2019-01-26T15:43:04.474Z,38.10
2019-01-26T15:45:18.667Z,29.18
2019-01-26T15:47:20.679Z,37.45
2019-01-26T15:49:22.428Z,47.05
2019-01-26T15:51:24.311Z,45.17
2019-01-26T15:53:26.259Z,26.73
2019-01-26T15:55:28.419Z,23.90
2019-01-26T15:57:30.255Z,25.48
2019-01-26T15:59:32.336Z,21.37
2019-01-26T16:01:34.100Z,23.10
2019-01-26T16:03:35.814Z,19.80
2019-01-26T16:05:37.850Z,24.45
2019-01-26T16:07:39.566Z,26.87
2019-01-26T16:09:41.284Z,33.67
2019-01-26T16:11:42.999Z,26.25
2019-01-26T16:13:44.720Z,37.38
2019-01-26T16:15:46.459Z,26.77
2019-01-26T16:17:48.580Z,27.65
2019-01-26T16:19:50.301Z,24.12
2019-01-26T16:21:52.062Z,27.25
2019-01-26T16:23:53.886Z,37.98
2019-01-26T16:25:55.823Z,26.73
2019-01-26T16:27:57.632Z,24.85
2019-01-26T16:29:59.378Z,25.10
2019-01-26T16:32:01.314Z,17.35
2019-01-26T16:34:03.350Z,25.65
2019-01-26T16:36:05.279Z,27.93
2019-01-26T16:38:07.190Z,27.55
2019-01-26T16:40:11.733Z,14.83
2019-01-26T16:42:13.483Z,13.55
2019-01-26T16:44:15.304Z,27.60
2019-01-26T16:46:17.022Z,26.62
2019-01-26T16:48:18.874Z,15.05
2019-01-26T16:50:27.776Z,17.12
2019-01-26T16:52:29.014Z,16.75
2019-01-26T16:54:31.038Z,22.58
2019-01-26T16:56:33.003Z,24.77
2019-01-26T16:58:35.043Z,19.42
2019-01-26T17:00:39.137Z,15.83
2019-01-26T17:02:41.050Z,16.48
2019-01-26T17:04:42.848Z,27.17
2019-01-26T17:06:44.765Z,40.75
2019-01-26T17:08:46.598Z,26.17
2019-01-26T17:10:48.417Z,26.68
2019-01-26T17:12:50.498Z,33.65
2019-01-26T17:14:52.274Z,41.88
2019-01-26T17:16:54.458Z,24.90
2019-01-26T17:18:56.170Z,17.27
2019-01-26T17:20:58.030Z,28.98
2019-01-26T17:22:59.764Z,39.30
2019-01-26T17:25:01.592Z,22.93
2019-01-26T17:27:03.357Z,21.05
2019-01-26T17:29:05.202Z,16.65
2019-01-26T17:31:07.119Z,17.23
2019-01-26T17:33:09.267Z,22.67
2019-01-26T17:35:11.471Z,23.22
2019-01-26T17:37:13.202Z,19.95
2019-01-26T17:39:14.942Z,17.25
2019-01-26T17:41:16.700Z,19.02
2019-01-26T17:43:18.418Z,17.82
2019-01-26T17:45:20.650Z,18.12
2019-01-26T17:47:22.506Z,17.90
2019-01-26T17:49:24.227Z,16.95
2019-01-26T17:51:26.071Z,19.10
2019-01-26T17:53:27.894Z,18.60
2019-01-26T17:55:29.714Z,20.05
2019-01-26T17:57:31.690Z,19.75
2019-01-26T17:59:33.499Z,20.65
2019-01-26T18:01:35.554Z,23.00
2019-01-26T18:03:37.385Z,20.97
2019-01-26T18:05:39.200Z,24.75
2019-01-26T18:07:41.002Z,22.70
2019-01-26T18:09:42.851Z,21.05
2019-01-26T18:11:44.555Z,21.60
2019-01-26T18:13:46.277Z,16.73
2019-01-26T18:15:48.386Z,18.87
2019-01-26T18:17:50.519Z,19.98
2019-01-26T18:19:52.375Z,17.00
2019-01-26T18:21:54.215Z,17.27
2019-01-26T18:23:55.962Z,17.57
2019-01-26T18:25:57.787Z,19.25
2019-01-26T18:27:59.687Z,18.10
2019-01-26T18:30:01.538Z,17.10
2019-01-26T18:32:03.346Z,18.35
2019-01-26T18:34:05.203Z,18.00
2019-01-26T18:36:06.920Z,20.68
2019-01-26T18:38:08.838Z,19.62
2019-01-26T18:40:14.084Z,21.50
2019-01-26T18:42:16.401Z,21.80
2019-01-26T18:44:18.245Z,21.52
2019-01-26T18:46:20.214Z,21.68
2019-01-26T18:48:22.029Z,19.65
2019-01-26T18:50:26.037Z,21.95
2019-01-26T18:52:27.979Z,24.70
2019-01-26T18:54:29.704Z,24.67
2019-01-26T18:56:31.443Z,25.90
2019-01-26T18:58:33.171Z,22.70
2019-01-26T19:00:37.652Z,22.20
2019-01-26T19:02:39.454Z,23.60
2019-01-26T19:04:45.717Z,22.82
2019-01-26T19:06:47.434Z,21.12
2019-01-26T19:08:49.473Z,23.15
2019-01-26T19:10:51.394Z,22.10
2019-01-26T19:12:53.533Z,22.40
2019-01-26T19:14:55.450Z,21.23
2019-01-26T19:16:57.259Z,17.82
2019-01-26T19:18:59.007Z,22.00
2019-01-26T19:21:03.376Z,22.67
2019-01-26T19:23:05.254Z,23.00
2019-01-26T19:25:09.859Z,24.40
2019-01-26T19:27:11.578Z,26.30
2019-01-26T19:29:13.286Z,25.37
2019-01-26T19:31:15.187Z,25.52
2019-01-26T19:33:16.923Z,25.57
2019-01-26T19:35:18.746Z,24.43
2019-01-26T19:37:20.502Z,26.30
2019-01-26T19:39:22.232Z,24.80
2019-01-26T19:41:24.050Z,26.97
2019-01-26T19:43:25.771Z,24.35
2019-01-26T19:45:27.618Z,25.20
2019-01-26T19:47:29.459Z,27.40
2019-01-26T19:49:31.234Z,26.48
2019-01-26T19:51:33.035Z,25.85
2019-01-26T19:53:35.226Z,29.37
2019-01-26T19:55:37.194Z,26.70
2019-01-26T19:57:39.021Z,24.80
2019-01-26T19:59:40.803Z,25.15
2019-01-26T20:01:42.714Z,26.95
2019-01-26T20:03:44.559Z,27.82
2019-01-26T20:05:48.146Z,25.05
2019-01-26T20:07:50.606Z,24.67
2019-01-26T20:09:52.626Z,24.60
2019-01-26T20:11:54.422Z,27.05
2019-01-26T20:13:56.354Z,23.90
2019-01-26T20:15:58.167Z,26.30
2019-01-26T20:17:59.995Z,26.57
2019-01-26T20:20:01.898Z,25.32
2019-01-26T20:22:03.842Z,25.90
2019-01-26T20:24:06.747Z,25.70
2019-01-26T20:26:08.896Z,28.55
2019-01-26T20:28:11.274Z,25.08
2019-01-26T20:30:18.401Z,25.92
2019-01-26T20:32:20.415Z,26.25
2019-01-26T20:34:22.456Z,26.37
2019-01-26T20:36:24.556Z,27.00
2019-01-26T20:38:26.427Z,27.30
2019-01-26T20:40:28.330Z,29.48
2019-01-26T20:42:30.515Z,31.57
2019-01-26T20:44:32.855Z,25.00
2019-01-26T20:46:34.607Z,30.82
2019-01-26T20:48:36.443Z,28.92
2019-01-26T20:50:38.347Z,27.37
2019-01-26T20:53:01.311Z,27.15
2019-01-26T20:55:19.316Z,29.02
2019-01-26T20:57:55.091Z,29.45
2019-01-26T21:00:10.740Z,29.57
2019-01-26T21:02:12.571Z,31.48
2019-01-26T21:04:14.295Z,29.95
2019-01-26T21:06:16.156Z,28.75
2019-01-26T21:08:18.254Z,31.85
2019-01-26T21:10:24.803Z,30.48
2019-01-26T21:12:26.914Z,30.27
2019-01-26T21:14:29.159Z,24.92
2019-01-26T21:16:31.260Z,30.62
2019-01-26T21:18:33.411Z,27.90
2019-01-26T21:20:56.778Z,34.80
2019-01-26T21:22:58.506Z,33.70
2019-01-26T21:25:03.165Z,31.75
2019-01-26T21:27:05.100Z,33.95
2019-01-26T21:29:06.931Z,32.28
2019-01-26T21:31:08.748Z,31.45
2019-01-26T21:33:10.499Z,30.02
2019-01-26T21:35:12.527Z,25.90
2019-01-26T21:37:17.802Z,29.92
2019-01-26T21:39:19.520Z,28.27
2019-01-26T21:41:21.234Z,30.35
2019-01-26T21:43:42.370Z,29.32
2019-01-26T21:46:09.886Z,32.23
2019-01-26T21:48:11.611Z,29.98
2019-01-26T21:50:16.527Z,31.52
2019-01-26T21:53:02.326Z,29.45
2019-01-26T21:55:04.575Z,28.20
2019-01-26T21:57:06.772Z,30.35
2019-01-26T21:59:08.535Z,32.23
2019-01-26T22:01:10.477Z,30.27
2019-01-26T22:08:32.619Z,31.35
2019-01-26T22:11:00.090Z,31.07
2019-01-26T22:13:01.893Z,30.00
2019-01-26T22:15:05.239Z,31.15
2019-01-26T22:17:07.157Z,29.90
2019-01-26T22:19:08.971Z,28.77
2019-01-26T22:22:18.499Z,30.32
2019-01-26T22:24:36.859Z,31.40
2019-01-26T22:26:40.908Z,30.27
2019-01-26T22:28:42.900Z,27.13
2019-01-26T22:30:45.124Z,30.17
2019-01-26T22:32:47.501Z,32.78
2019-01-26T22:34:49.358Z,28.80
2019-01-26T22:36:51.240Z,30.62
2019-01-26T22:38:53.402Z,28.77
2019-01-26T22:40:55.334Z,30.57
2019-01-26T22:42:57.436Z,28.15
2019-01-26T22:44:59.232Z,30.15
2019-01-26T22:47:01.389Z,30.55
2019-01-26T22:49:03.606Z,32.13
2019-01-26T22:51:05.528Z,31.30
2019-01-26T22:53:07.442Z,28.75
2019-01-26T22:55:11.014Z,30.17
2019-01-26T22:57:12.954Z,27.85
2019-01-26T22:59:14.985Z,28.45
2019-01-26T23:01:23.966Z,28.02
2019-01-26T23:03:54.390Z,30.35
2019-01-26T23:06:28.164Z,25.27
2019-01-26T23:08:30.106Z,28.15
2019-01-26T23:10:55.089Z,31.40
2019-01-26T23:13:11.208Z,29.65
2019-01-26T23:15:53.721Z,31.65
2019-01-26T23:18:37.179Z,29.72
2019-01-26T23:20:54.846Z,29.75
2019-01-26T23:23:23.210Z,28.52
2019-01-26T23:25:54.990Z,30.32
2019-01-26T23:28:23.896Z,31.15
2019-01-26T23:31:13.714Z,31.50
2019-01-26T23:33:15.874Z,31.97
2019-01-26T23:35:19.721Z,32.90
2019-01-26T23:37:21.554Z,34.92
2019-01-26T23:39:23.701Z,36.33
2019-01-26T23:41:25.620Z,31.30
2019-01-26T23:43:27.918Z,32.70
2019-01-26T23:45:29.902Z,30.52
2019-01-26T23:47:32.963Z,33.13
2019-01-26T23:49:34.809Z,31.10
2019-01-26T23:51:36.870Z,31.40
2019-01-26T23:53:39.768Z,31.12
2019-01-26T23:55:42.051Z,32.00
2019-01-26T23:57:43.959Z,31.60
2019-01-26T23:59:45.728Z,32.15
